Flight Track Log - Related Links

Times and Time Zones

All times are in EDT time to prevent confusion due to time zone crossing. See the GLA65P flight status page for this flight to view local times or setup timezone preferences in your user account.

Time Position Orientation Groundspeed Altitude Reporting Facility
EDT Latitude Longitude Course Direction KTS MPH feet Rate Location/Type
Wed 05:06:07 PM 34.6856 -112.4767 336° Northwest 148 170 8,000  Level Albuquerque Center
Wed 05:07:09 PM 34.7019 -112.5400 287° West 175 201 9,800 871 Climbing Albuquerque Center
Wed 05:08:11 PM 34.7081 -112.6069 276° West 198 228 9,800 98 Level Albuquerque Center
Wed 05:09:12 PM 34.7058 -112.6836 268° West 221 254 10,000 49 Climbing Albuquerque Center
Wed 05:10:00 PM 34.7167 -113.0145 270° West  Level FlightAware Approximate
Wed 05:10:14 PM 34.7092 -112.7611 273° West 229 264 9,900  Level Albuquerque Center
Wed 05:11:16 PM 34.7147 -112.8308 276° West 217 250 11,300 1,694 Climbing Albuquerque Center
Wed 05:12:18 PM 34.7169 -112.8853 273° West 174 200 13,400 2,098 Climbing Albuquerque Center
Wed 05:13:19 PM 34.7192 -112.9553 272° West 171 197 15,600 1,902 Climbing Albuquerque Center
Wed 05:14:21 PM 34.7211 -113.0169 272° West 179 206 17,300 1,452 Climbing Albuquerque Center
Wed 05:15:23 PM 34.7217 -113.0811 271° West 187 215 18,600 1,268 Climbing Albuquerque Center
Wed 05:16:24 PM 34.7147 -113.1469 263° West 196 226 19,900 634 Climbing Albuquerque Center
Wed 05:17:26 PM 34.7133 -113.2286 269° West 242 278 19,900 48 Level Albuquerque Center
Wed 05:18:28 PM 34.7108 -113.3203 268° West 267 307 20,000 48 Climbing Albuquerque Center
Wed 05:19:30 PM 34.7083 -113.4150 268° West 274 315 20,000 -49 Level Albuquerque Center
Wed 05:20:31 PM 34.7106 -113.5289 271° West 279 321 19,900  Descending Albuquerque Center
Wed 05:21:33 PM 34.7311 -113.6197 285° West 278 320 20,000 97 Climbing Albuquerque Center
Wed 05:22:35 PM 34.7492 -113.7089 284° West 276 318 20,100 -49 Climbing Albuquerque Center
Wed 05:23:36 PM 34.7539 -113.8028 274° West 279 321 19,900 -49 Descending Albuquerque Center
Wed 05:24:38 PM 34.7558 -113.8972 271° West 281 323 20,000 48 Climbing Albuquerque Center
Wed 05:25:40 PM 34.7594 -113.9953 273° West 280 322 20,000  Level Albuquerque Center
Wed 05:26:42 PM 34.7617 -114.0897 272° West 280 322 20,000  Level Albuquerque Center
Wed 05:27:51 PM 34.7683 -114.2031 274° West 284 327 20,000  Level Los Angeles Center
Wed 05:28:53 PM 34.7686 -114.2969 270° West 280 322 20,000  Level Los Angeles Center
Wed 05:29:55 PM 34.7656 -114.4108 268° West 281 323 20,000  Level Los Angeles Center
Wed 05:30:57 PM 34.7619 -114.5072 267° West 283 326 20,000  Level Los Angeles Center
Wed 05:31:59 PM 34.7708 -114.6017 277° West 281 323 20,000  Level Los Angeles Center
Wed 05:33:01 PM 34.7719 -114.6981 271° West 284 327 20,000  Level Los Angeles Center
Wed 05:34:03 PM 34.7739 -114.7947 271° West 286 329 20,000  Level Los Angeles Center
Wed 05:35:06 PM 34.7764 -114.8908 272° West 285 328 20,000  Level Los Angeles Center
Wed 05:36:08 PM 34.7817 -114.9872 274° West 285 328 20,000  Level Los Angeles Center
Wed 05:37:10 PM 34.7828 -115.1017 271° West 281 323 20,000  Level Los Angeles Center
Wed 05:38:12 PM 34.7800 -115.1997 268° West 289 333 20,000  Level Los Angeles Center
Wed 05:39:14 PM 34.7803 -115.2978 270° West 290 334 20,000  Level Los Angeles Center
Wed 05:40:16 PM 34.7825 -115.3978 272° West 294 338 20,000  Level Los Angeles Center
Wed 05:41:18 PM 34.7828 -115.4958 270° West 292 336 20,000  Level Los Angeles Center
Wed 05:42:20 PM 34.7775 -115.6083 267° West 293 337 20,000 48 Level Los Angeles Center
Wed 05:43:22 PM 34.7725 -115.7064 266° West 293 337 20,100  Climbing Los Angeles Center
Wed 05:44:24 PM 34.7686 -115.8047 267° West 291 335 20,000 -48 Descending Los Angeles Center
Wed 05:45:27 PM 34.7703 -115.9031 271° West 292 336 20,000  Level Los Angeles Center
Wed 05:46:29 PM 34.7681 -116.0008 268° West 291 335 20,000  Level Los Angeles Center
Wed 05:47:31 PM 34.7736 -116.1183 273° West 291 335 20,000  Level Los Angeles Center
Wed 05:48:33 PM 34.7825 -116.2158 276° West 291 335 20,000  Level Los Angeles Center
Wed 05:49:47 PM 34.7919 -116.3328 276° West 290 334 20,000  Level Los Angeles Center
Wed 05:50:50 PM 34.7972 -116.4333 274° West 295 339 20,000  Level Los Angeles Center
Wed 05:51:52 PM 34.7950 -116.5311 268° West 298 343 20,000  Level Los Angeles Center
Wed 05:52:54 PM 34.7789 -116.6292 259° West 296 341 20,000  Level Los Angeles Center
Wed 05:53:56 PM 34.7739 -116.7506 267° West 299 344 20,000  Level Los Angeles Center
Wed 05:54:58 PM 34.7689 -116.8514 267° West 298 343 20,000  Level Los Angeles Center
Wed 05:56:00 PM 34.7619 -116.9503 265° West 295 339 20,000  Level Los Angeles Center
Wed 05:57:02 PM 34.7519 -117.0500 263° West 296 341 20,000  Level Los Angeles Center
Wed 05:58:04 PM 34.7444 -117.1494 265° West 296 341 20,000 -435 Level Los Angeles Center
Wed 05:59:06 PM 34.7336 -117.2494 263° West 298 343 19,100 -1,113 Descending Los Angeles Center
Wed 06:00:08 PM 34.7175 -117.3722 261° West 306 352 17,700 -1,210 Descending Los Angeles Center
Wed 06:01:10 PM 34.7014 -117.4758 259° West 309 356 16,600 -1,008 Descending Los Angeles Center
Wed 06:02:13 PM 34.6867 -117.5769 260° West 305 351 15,600 -1,152 Descending Los Angeles Center
Wed 06:03:15 PM 34.6722 -117.6769 260° West 301 346 14,200 -1,258 Descending Los Angeles Center
Wed 06:04:17 PM 34.6603 -117.7758 262° West 297 342 13,000 -1,161 Descending Los Angeles Center
Wed 06:05:19 PM 34.6539 -117.8767 266° West 300 345 11,800 -1,161 Descending Los Angeles Center
Wed 06:06:21 PM 34.6450 -117.9750 264° West 293 337 10,600 -1,548 Descending Los Angeles Center
Wed 06:07:23 PM 34.6150 -118.0789 251° West 277 319 8,600 -1,258 Descending Los Angeles Center
Wed 06:08:25 PM 34.5706 -118.1519 234° Southwest 259 298 8,000 -242 Descending Los Angeles Center
Wed 06:09:27 PM 34.5414 -118.2128 240° Southwest 247 284 8,100 48 Climbing Los Angeles Center
Wed 06:10:29 PM 34.4892 -118.2925 232° Southwest 256 295 8,100  Level Los Angeles Center
Wed 06:11:31 PM 34.4414 -118.3558 228° Southwest 260 299 8,100 -192 Level Los Angeles Center
Wed 06:12:34 PM 34.3694 -118.3692 189° South 261 300 7,700 -384 Descending Los Angeles Center
Wed 06:13:36 PM 34.2981 -118.3408 162° South 272 313 7,300 -435 Descending Los Angeles Center
Wed 06:14:38 PM 34.2311 -118.3036 155° Southeast 268 308 6,800 -532 Descending Los Angeles Center
Wed 06:15:40 PM 34.1506 -118.2503 151° Southeast 272 313 6,200 -387 Descending Los Angeles Center
Wed 06:16:42 PM 34.0856 -118.2111 153° Southeast 263 303 6,000 -484 Descending Los Angeles Center
Wed 06:17:44 PM 34.0300 -118.1761 152° Southeast 233 268 5,200 -1,016 Descending Los Angeles Center
Wed 06:18:46 PM 33.9844 -118.1722 176° South 200 230 3,900 -1,016 Descending Los Angeles Center
Wed 06:19:48 PM 33.9711 -118.2256 253° West 179 206 3,100 -774 Descending Los Angeles Center
Wed 06:20:50 PM 33.9647 -118.2844 263° West 178 205 2,300 -919 Descending Los Angeles Center
Wed 06:21:52 PM 33.9583 -118.3450 263° West 163 188 1,200 -864 Descending Los Angeles Center
Wed 06:22:55 PM 33.9553 -118.3831 264° West 133 153 500 -528 Descending Los Angeles Center
Wed 06:23:57 PM 33.9514 -118.4181 262° West 114 131 100 -387 Descending Los Angeles Center
Wed 06:25:00 PM 33.9425 -118.4081 228° Southwest  Level Estimated
Wed 06:32:00 PM 33.9425 -118.4081 228° Southwest  Level Estimated

Login

Don't have an account? Register now (free) for customized features, flight alerts, and more!